sensor_id;sensor_type;location;lat;lon;timestamp;P1;durP1;ratioP1;P2;durP2;ratioP2
253;SDS011;590;48.772;8.846;2023-07-02T00:00:17;4.30;;;4.00;;
253;SDS011;590;48.772;8.846;2023-07-02T00:02:45;2.97;;;2.80;;
253;SDS011;590;48.772;8.846;2023-07-02T00:05:13;3.30;;;3.10;;
253;SDS011;590;48.772;8.846;2023-07-02T00:07:41;3.70;;;3.50;;
253;SDS011;590;48.772;8.846;2023-07-02T00:10:09;3.67;;;3.47;;
253;SDS011;590;48.772;8.846;2023-07-02T00:12:37;2.93;;;2.73;;
253;SDS011;590;48.772;8.846;2023-07-02T00:15:06;3.67;;;3.47;;
253;SDS011;590;48.772;8.846;2023-07-02T00:17:36;3.10;;;2.90;;
253;SDS011;590;48.772;8.846;2023-07-02T00:20:07;4.03;;;3.83;;
253;SDS011;590;48.772;8.846;2023-07-02T00:22:40;3.40;;;3.23;;
253;SDS011;590;48.772;8.846;2023-07-02T00:25:12;4.00;;;3.80;;
253;SDS011;590;48.772;8.846;2023-07-02T00:27:40;3.30;;;3.10;;
253;SDS011;590;48.772;8.846;2023-07-02T00:30:09;4.13;;;3.20;;
253;SDS011;590;48.772;8.846;2023-07-02T00:32:39;3.27;;;3.07;;
253;SDS011;590;48.772;8.846;2023-07-02T00:35:07;3.43;;;3.23;;
253;SDS011;590;48.772;8.846;2023-07-02T00:37:35;3.77;;;3.57;;
253;SDS011;590;48.772;8.846;2023-07-02T00:40:04;3.30;;;3.10;;
253;SDS011;590;48.772;8.846;2023-07-02T00:42:33;3.23;;;3.03;;
253;SDS011;590;48.772;8.846;2023-07-02T00:45:02;3.03;;;2.83;;
253;SDS011;590;48.772;8.846;2023-07-02T00:47:30;3.60;;;3.40;;
253;SDS011;590;48.772;8.846;2023-07-02T00:50:03;4.80;;;2.93;;
253;SDS011;590;48.772;8.846;2023-07-02T00:52:32;3.50;;;3.30;;
253;SDS011;590;48.772;8.846;2023-07-02T00:55:00;2.97;;;2.63;;
253;SDS011;590;48.772;8.846;2023-07-02T00:57:28;3.20;;;3.00;;
253;SDS011;590;48.772;8.846;2023-07-02T00:59:57;3.43;;;3.23;;
253;SDS011;590;48.772;8.846;2023-07-02T01:02:27;3.37;;;3.17;;
253;SDS011;590;48.772;8.846;2023-07-02T01:04:56;4.47;;;3.10;;
253;SDS011;590;48.772;8.846;2023-07-02T01:07:28;2.77;;;2.57;;
253;SDS011;590;48.772;8.846;2023-07-02T01:09:57;3.30;;;3.20;;
253;SDS011;590;48.772;8.846;2023-07-02T01:12:25;3.93;;;3.73;;
253;SDS011;590;48.772;8.846;2023-07-02T01:14:53;3.20;;;3.07;;
253;SDS011;590;48.772;8.846;2023-07-02T01:17:26;3.40;;;3.23;;
253;SDS011;590;48.772;8.846;2023-07-02T01:20:06;5.43;;;3.30;;
253;SDS011;590;48.772;8.846;2023-07-02T01:22:36;4.03;;;3.83;;
253;SDS011;590;48.772;8.846;2023-07-02T01:25:05;3.43;;;3.23;;
253;SDS011;590;48.772;8.846;2023-07-02T01:27:35;3.23;;;3.10;;
253;SDS011;590;48.772;8.846;2023-07-02T01:30:03;4.20;;;3.10;;
253;SDS011;590;48.772;8.846;2023-07-02T01:32:33;3.63;;;3.43;;
253;SDS011;590;48.772;8.846;2023-07-02T01:35:02;4.53;;;3.30;;
253;SDS011;590;48.772;8.846;2023-07-02T01:37:32;3.67;;;3.47;;
253;SDS011;590;48.772;8.846;2023-07-02T01:40:04;5.10;;;3.87;;
253;SDS011;590;48.772;8.846;2023-07-02T01:42:34;4.00;;;3.80;;
253;SDS011;590;48.772;8.846;2023-07-02T01:45:02;4.30;;;4.00;;
253;SDS011;590;48.772;8.846;2023-07-02T01:47:31;3.40;;;3.20;;
253;SDS011;590;48.772;8.846;2023-07-02T01:49:59;3.53;;;3.33;;
253;SDS011;590;48.772;8.846;2023-07-02T01:52:27;3.53;;;3.33;;
253;SDS011;590;48.772;8.846;2023-07-02T01:55:01;5.20;;;4.17;;
253;SDS011;590;48.772;8.846;2023-07-02T01:57:29;3.40;;;3.20;;
253;SDS011;590;48.772;8.846;2023-07-02T01:59:57;5.37;;;4.07;;
253;SDS011;590;48.772;8.846;2023-07-02T02:02:25;4.37;;;3.30;;
253;SDS011;590;48.772;8.846;2023-07-02T02:04:53;3.60;;;3.40;;
253;SDS011;590;48.772;8.846;2023-07-02T02:07:23;3.07;;;2.87;;
253;SDS011;590;48.772;8.846;2023-07-02T02:09:52;3.33;;;3.13;;
253;SDS011;590;48.772;8.846;2023-07-02T02:12:21;3.60;;;3.40;;
253;SDS011;590;48.772;8.846;2023-07-02T02:14:49;3.23;;;2.90;;
253;SDS011;590;48.772;8.846;2023-07-02T02:17:18;3.13;;;2.97;;
253;SDS011;590;48.772;8.846;2023-07-02T02:19:46;3.27;;;3.07;;
253;SDS011;590;48.772;8.846;2023-07-02T02:22:14;3.33;;;3.17;;
253;SDS011;590;48.772;8.846;2023-07-02T02:24:42;3.50;;;3.30;;
253;SDS011;590;48.772;8.846;2023-07-02T02:27:10;4.80;;;3.10;;
253;SDS011;590;48.772;8.846;2023-07-02T02:29:39;3.47;;;2.80;;
253;SDS011;590;48.772;8.846;2023-07-02T02:32:07;3.47;;;3.27;;
253;SDS011;590;48.772;8.846;2023-07-02T02:34:35;3.07;;;2.87;;
253;SDS011;590;48.772;8.846;2023-07-02T02:37:03;3.03;;;2.60;;
253;SDS011;590;48.772;8.846;2023-07-02T02:39:31;4.37;;;3.00;;
253;SDS011;590;48.772;8.846;2023-07-02T02:41:59;3.00;;;2.70;;
253;SDS011;590;48.772;8.846;2023-07-02T02:44:27;3.03;;;2.80;;
253;SDS011;590;48.772;8.846;2023-07-02T02:46:57;2.80;;;2.67;;
253;SDS011;590;48.772;8.846;2023-07-02T02:49:26;3.57;;;3.37;;
253;SDS011;590;48.772;8.846;2023-07-02T02:51:54;2.67;;;2.47;;
253;SDS011;590;48.772;8.846;2023-07-02T02:54:22;3.67;;;3.13;;
253;SDS011;590;48.772;8.846;2023-07-02T02:56:50;3.23;;;3.03;;
253;SDS011;590;48.772;8.846;2023-07-02T02:59:18;2.93;;;2.73;;
253;SDS011;590;48.772;8.846;2023-07-02T03:01:46;4.00;;;3.07;;
253;SDS011;590;48.772;8.846;2023-07-02T03:04:16;3.50;;;3.20;;
253;SDS011;590;48.772;8.846;2023-07-02T03:06:44;3.27;;;3.10;;
253;SDS011;590;48.772;8.846;2023-07-02T03:09:12;2.97;;;2.77;;
253;SDS011;590;48.772;8.846;2023-07-02T03:11:40;4.90;;;4.30;;
253;SDS011;590;48.772;8.846;2023-07-02T03:14:08;4.40;;;4.03;;
253;SDS011;590;48.772;8.846;2023-07-02T03:16:36;3.90;;;3.70;;
253;SDS011;590;48.772;8.846;2023-07-02T03:19:04;3.77;;;3.57;;
253;SDS011;590;48.772;8.846;2023-07-02T03:21:34;4.40;;;3.87;;
253;SDS011;590;48.772;8.846;2023-07-02T03:24:02;4.50;;;3.30;;
253;SDS011;590;48.772;8.846;2023-07-02T03:26:30;3.90;;;3.50;;
253;SDS011;590;48.772;8.846;2023-07-02T03:28:58;5.57;;;4.03;;
253;SDS011;590;48.772;8.846;2023-07-02T03:31:26;4.20;;;3.13;;
253;SDS011;590;48.772;8.846;2023-07-02T03:33:54;3.90;;;3.50;;
253;SDS011;590;48.772;8.846;2023-07-02T03:36:22;4.03;;;3.83;;
253;SDS011;590;48.772;8.846;2023-07-02T03:38:51;3.87;;;3.50;;
253;SDS011;590;48.772;8.846;2023-07-02T03:41:19;3.97;;;3.77;;
253;SDS011;590;48.772;8.846;2023-07-02T03:43:47;3.80;;;3.60;;
253;SDS011;590;48.772;8.846;2023-07-02T03:46:15;4.33;;;3.90;;
253;SDS011;590;48.772;8.846;2023-07-02T03:48:43;4.40;;;4.10;;
253;SDS011;590;48.772;8.846;2023-07-02T03:51:11;4.23;;;3.87;;
253;SDS011;590;48.772;8.846;2023-07-02T03:53:40;3.93;;;3.70;;
253;SDS011;590;48.772;8.846;2023-07-02T03:56:10;6.00;;;3.70;;
253;SDS011;590;48.772;8.846;2023-07-02T03:58:39;4.27;;;3.73;;
253;SDS011;590;48.772;8.846;2023-07-02T04:01:07;4.50;;;3.80;;
253;SDS011;590;48.772;8.846;2023-07-02T04:03:35;4.43;;;4.13;;
253;SDS011;590;48.772;8.846;2023-07-02T04:06:04;5.43;;;3.83;;
253;SDS011;590;48.772;8.846;2023-07-02T04:08:32;3.57;;;3.33;;
253;SDS011;590;48.772;8.846;2023-07-02T04:11:00;3.40;;;3.20;;
253;SDS011;590;48.772;8.846;2023-07-02T04:13:30;3.70;;;3.50;;
253;SDS011;590;48.772;8.846;2023-07-02T04:15:58;3.20;;;3.00;;
253;SDS011;590;48.772;8.846;2023-07-02T04:18:26;3.43;;;3.20;;
253;SDS011;590;48.772;8.846;2023-07-02T04:20:55;3.60;;;3.40;;
253;SDS011;590;48.772;8.846;2023-07-02T04:23:23;3.60;;;3.40;;
253;SDS011;590;48.772;8.846;2023-07-02T04:25:52;3.50;;;3.30;;
253;SDS011;590;48.772;8.846;2023-07-02T04:28:47;4.30;;;3.77;;
253;SDS011;590;48.772;8.846;2023-07-02T04:31:15;4.23;;;3.40;;
253;SDS011;590;48.772;8.846;2023-07-02T04:33:43;4.60;;;3.60;;
253;SDS011;590;48.772;8.846;2023-07-02T04:36:11;3.60;;;2.70;;
253;SDS011;590;48.772;8.846;2023-07-02T04:38:39;3.10;;;2.90;;
253;SDS011;590;48.772;8.846;2023-07-02T04:41:07;3.40;;;3.20;;
253;SDS011;590;48.772;8.846;2023-07-02T04:43:36;4.13;;;3.47;;
253;SDS011;590;48.772;8.846;2023-07-02T04:46:06;3.77;;;3.57;;
253;SDS011;590;48.772;8.846;2023-07-02T04:48:34;3.77;;;3.60;;
253;SDS011;590;48.772;8.846;2023-07-02T04:51:02;3.47;;;2.93;;
253;SDS011;590;48.772;8.846;2023-07-02T04:53:31;3.20;;;2.83;;
253;SDS011;590;48.772;8.846;2023-07-02T04:55:59;3.23;;;3.03;;
253;SDS011;590;48.772;8.846;2023-07-02T04:58:27;3.03;;;2.83;;
253;SDS011;590;48.772;8.846;2023-07-02T05:00:55;3.67;;;3.47;;
253;SDS011;590;48.772;8.846;2023-07-02T05:03:25;3.90;;;3.30;;
253;SDS011;590;48.772;8.846;2023-07-02T05:05:54;7.70;;;3.73;;
253;SDS011;590;48.772;8.846;2023-07-02T05:08:22;3.50;;;3.30;;
253;SDS011;590;48.772;8.846;2023-07-02T05:10:50;3.53;;;3.27;;
253;SDS011;590;48.772;8.846;2023-07-02T05:13:18;4.50;;;4.20;;
253;SDS011;590;48.772;8.846;2023-07-02T05:15:46;6.10;;;3.47;;
253;SDS011;590;48.772;8.846;2023-07-02T05:18:14;5.37;;;3.53;;
253;SDS011;590;48.772;8.846;2023-07-02T05:20:43;5.83;;;3.50;;
253;SDS011;590;48.772;8.846;2023-07-02T05:23:11;5.73;;;4.10;;
253;SDS011;590;48.772;8.846;2023-07-02T05:25:40;3.83;;;3.40;;
253;SDS011;590;48.772;8.846;2023-07-02T05:28:08;5.67;;;4.10;;
253;SDS011;590;48.772;8.846;2023-07-02T05:30:36;4.63;;;4.37;;
253;SDS011;590;48.772;8.846;2023-07-02T05:33:04;6.60;;;5.17;;
253;SDS011;590;48.772;8.846;2023-07-02T05:35:32;5.10;;;4.00;;
253;SDS011;590;48.772;8.846;2023-07-02T05:38:01;5.00;;;4.63;;
253;SDS011;590;48.772;8.846;2023-07-02T05:40:29;5.80;;;5.53;;
253;SDS011;590;48.772;8.846;2023-07-02T05:42:58;7.50;;;7.10;;
253;SDS011;590;48.772;8.846;2023-07-02T05:45:26;5.23;;;4.93;;
253;SDS011;590;48.772;8.846;2023-07-02T05:47:57;5.83;;;4.60;;
253;SDS011;590;48.772;8.846;2023-07-02T05:50:25;5.03;;;4.73;;
253;SDS011;590;48.772;8.846;2023-07-02T05:52:53;6.10;;;5.80;;
253;SDS011;590;48.772;8.846;2023-07-02T05:55:22;5.40;;;5.20;;
253;SDS011;590;48.772;8.846;2023-07-02T05:57:50;8.77;;;6.53;;
253;SDS011;590;48.772;8.846;2023-07-02T06:00:18;7.33;;;6.93;;
253;SDS011;590;48.772;8.846;2023-07-02T06:02:47;6.97;;;6.00;;
253;SDS011;590;48.772;8.846;2023-07-02T06:05:15;8.60;;;7.03;;
253;SDS011;590;48.772;8.846;2023-07-02T06:07:43;6.73;;;6.33;;
253;SDS011;590;48.772;8.846;2023-07-02T06:10:11;7.63;;;6.90;;
253;SDS011;590;48.772;8.846;2023-07-02T06:12:41;6.33;;;5.97;;
253;SDS011;590;48.772;8.846;2023-07-02T06:15:09;6.80;;;6.40;;
253;SDS011;590;48.772;8.846;2023-07-02T06:17:38;5.87;;;5.53;;
253;SDS011;590;48.772;8.846;2023-07-02T06:20:06;7.80;;;6.77;;
253;SDS011;590;48.772;8.846;2023-07-02T06:22:35;7.13;;;6.77;;
253;SDS011;590;48.772;8.846;2023-07-02T06:25:03;9.50;;;7.07;;
253;SDS011;590;48.772;8.846;2023-07-02T06:27:32;11.83;;;8.03;;
253;SDS011;590;48.772;8.846;2023-07-02T06:30:01;10.03;;;8.77;;
253;SDS011;590;48.772;8.846;2023-07-02T06:32:30;10.37;;;8.43;;
253;SDS011;590;48.772;8.846;2023-07-02T06:34:58;10.20;;;9.27;;
253;SDS011;590;48.772;8.846;2023-07-02T06:37:26;10.70;;;8.97;;
253;SDS011;590;48.772;8.846;2023-07-02T06:39:54;9.90;;;8.67;;
253;SDS011;590;48.772;8.846;2023-07-02T06:42:23;9.70;;;9.20;;
253;SDS011;590;48.772;8.846;2023-07-02T06:44:52;9.83;;;9.33;;
253;SDS011;590;48.772;8.846;2023-07-02T06:47:21;10.33;;;9.83;;
253;SDS011;590;48.772;8.846;2023-07-02T06:49:51;8.80;;;8.30;;
253;SDS011;590;48.772;8.846;2023-07-02T06:52:19;10.43;;;9.90;;
253;SDS011;590;48.772;8.846;2023-07-02T06:54:47;11.10;;;9.67;;
253;SDS011;590;48.772;8.846;2023-07-02T06:57:15;11.60;;;10.53;;
253;SDS011;590;48.772;8.846;2023-07-02T06:59:43;13.97;;;10.70;;
253;SDS011;590;48.772;8.846;2023-07-02T07:02:16;10.13;;;9.40;;
253;SDS011;590;48.772;8.846;2023-07-02T07:04:45;12.10;;;10.37;;
253;SDS011;590;48.772;8.846;2023-07-02T07:07:13;10.03;;;9.53;;
253;SDS011;590;48.772;8.846;2023-07-02T07:09:41;9.80;;;9.30;;
253;SDS011;590;48.772;8.846;2023-07-02T07:12:11;10.10;;;9.57;;
253;SDS011;590;48.772;8.846;2023-07-02T07:14:39;10.67;;;10.07;;
253;SDS011;590;48.772;8.846;2023-07-02T07:17:08;11.13;;;10.53;;
253;SDS011;590;48.772;8.846;2023-07-02T07:19:36;11.47;;;10.70;;
253;SDS011;590;48.772;8.846;2023-07-02T07:22:05;13.07;;;11.10;;
253;SDS011;590;48.772;8.846;2023-07-02T07:24:33;12.20;;;11.60;;
253;SDS011;590;48.772;8.846;2023-07-02T07:27:01;10.07;;;9.53;;
253;SDS011;590;48.772;8.846;2023-07-02T07:29:29;11.90;;;11.30;;
253;SDS011;590;48.772;8.846;2023-07-02T07:31:57;12.50;;;11.90;;
253;SDS011;590;48.772;8.846;2023-07-02T07:34:25;12.30;;;11.63;;
253;SDS011;590;48.772;8.846;2023-07-02T07:36:54;14.90;;;12.90;;
253;SDS011;590;48.772;8.846;2023-07-02T07:39:23;12.30;;;11.70;;
253;SDS011;590;48.772;8.846;2023-07-02T07:41:51;14.93;;;12.90;;
253;SDS011;590;48.772;8.846;2023-07-02T07:44:19;13.50;;;12.43;;
253;SDS011;590;48.772;8.846;2023-07-02T07:46:47;13.57;;;12.87;;
253;SDS011;590;48.772;8.846;2023-07-02T07:49:15;14.07;;;12.57;;
253;SDS011;590;48.772;8.846;2023-07-02T07:51:43;14.30;;;13.63;;
253;SDS011;590;48.772;8.846;2023-07-02T07:54:11;14.47;;;12.47;;
253;SDS011;590;48.772;8.846;2023-07-02T07:56:41;13.53;;;12.63;;
253;SDS011;590;48.772;8.846;2023-07-02T07:59:10;13.33;;;12.63;;
253;SDS011;590;48.772;8.846;2023-07-02T08:01:39;16.20;;;12.23;;
253;SDS011;590;48.772;8.846;2023-07-02T08:04:07;14.73;;;13.43;;
253;SDS011;590;48.772;8.846;2023-07-02T08:06:36;15.80;;;11.90;;
253;SDS011;590;48.772;8.846;2023-07-02T08:09:03;12.70;;;11.83;;
253;SDS011;590;48.772;8.846;2023-07-02T08:11:32;13.87;;;13.17;;
253;SDS011;590;48.772;8.846;2023-07-02T08:14:02;13.40;;;12.70;;
253;SDS011;590;48.772;8.846;2023-07-02T08:16:30;15.00;;;13.00;;
253;SDS011;590;48.772;8.846;2023-07-02T08:19:01;12.30;;;11.70;;
253;SDS011;590;48.772;8.846;2023-07-02T08:21:31;11.93;;;11.33;;
253;SDS011;590;48.772;8.846;2023-07-02T08:24:04;14.60;;;13.40;;
253;SDS011;590;48.772;8.846;2023-07-02T08:26:33;12.80;;;11.40;;
253;SDS011;590;48.772;8.846;2023-07-02T08:29:02;12.27;;;11.40;;
253;SDS011;590;48.772;8.846;2023-07-02T08:31:30;13.10;;;11.93;;
253;SDS011;590;48.772;8.846;2023-07-02T08:33:58;13.57;;;12.87;;
253;SDS011;590;48.772;8.846;2023-07-02T08:36:26;12.37;;;11.73;;
253;SDS011;590;48.772;8.846;2023-07-02T08:38:54;11.60;;;11.00;;
253;SDS011;590;48.772;8.846;2023-07-02T08:41:23;16.03;;;12.83;;
253;SDS011;590;48.772;8.846;2023-07-02T08:43:54;15.20;;;11.80;;
253;SDS011;590;48.772;8.846;2023-07-02T08:46:24;12.70;;;11.83;;
253;SDS011;590;48.772;8.846;2023-07-02T08:48:52;13.50;;;11.90;;
253;SDS011;590;48.772;8.846;2023-07-02T08:51:20;12.73;;;12.03;;
253;SDS011;590;48.772;8.846;2023-07-02T08:53:49;13.13;;;12.43;;
253;SDS011;590;48.772;8.846;2023-07-02T08:56:17;11.90;;;11.30;;
253;SDS011;590;48.772;8.846;2023-07-02T08:58:45;13.60;;;11.97;;
253;SDS011;590;48.772;8.846;2023-07-02T09:01:13;14.27;;;13.50;;
253;SDS011;590;48.772;8.846;2023-07-02T09:03:43;13.37;;;12.43;;
253;SDS011;590;48.772;8.846;2023-07-02T09:06:11;13.50;;;12.80;;
253;SDS011;590;48.772;8.846;2023-07-02T09:08:40;12.03;;;11.43;;
253;SDS011;590;48.772;8.846;2023-07-02T09:11:08;13.17;;;12.47;;
253;SDS011;590;48.772;8.846;2023-07-02T09:13:44;12.73;;;12.03;;
253;SDS011;590;48.772;8.846;2023-07-02T09:16:23;12.70;;;11.97;;
253;SDS011;590;48.772;8.846;2023-07-02T09:19:00;13.10;;;11.93;;
253;SDS011;590;48.772;8.846;2023-07-02T09:21:37;12.90;;;12.20;;
253;SDS011;590;48.772;8.846;2023-07-02T09:24:17;13.77;;;12.70;;
253;SDS011;590;48.772;8.846;2023-07-02T09:26:46;11.83;;;11.23;;
253;SDS011;590;48.772;8.846;2023-07-02T09:29:17;12.77;;;11.57;;
253;SDS011;590;48.772;8.846;2023-07-02T09:31:46;13.77;;;12.63;;
253;SDS011;590;48.772;8.846;2023-07-02T09:34:37;11.70;;;11.10;;
253;SDS011;590;48.772;8.846;2023-07-02T09:37:08;11.93;;;11.37;;
253;SDS011;590;48.772;8.846;2023-07-02T09:39:36;13.37;;;12.10;;
253;SDS011;590;48.772;8.846;2023-07-02T09:42:06;11.50;;;10.90;;
253;SDS011;590;48.772;8.846;2023-07-02T09:44:45;12.70;;;12.00;;
253;SDS011;590;48.772;8.846;2023-07-02T09:47:14;13.67;;;12.97;;
253;SDS011;590;48.772;8.846;2023-07-02T09:49:48;13.27;;;12.57;;
253;SDS011;590;48.772;8.846;2023-07-02T09:52:19;14.60;;;13.67;;
253;SDS011;590;48.772;8.846;2023-07-02T09:54:48;13.90;;;13.23;;
253;SDS011;590;48.772;8.846;2023-07-02T09:57:16;14.33;;;13.63;;
253;SDS011;590;48.772;8.846;2023-07-02T09:59:44;15.33;;;13.30;;
253;SDS011;590;48.772;8.846;2023-07-02T10:02:12;13.10;;;12.40;;
253;SDS011;590;48.772;8.846;2023-07-02T10:04:41;13.17;;;12.47;;
253;SDS011;590;48.772;8.846;2023-07-02T10:07:12;12.53;;;11.90;;
253;SDS011;590;48.772;8.846;2023-07-02T10:09:42;14.23;;;11.50;;
253;SDS011;590;48.772;8.846;2023-07-02T10:12:15;13.33;;;12.63;;
253;SDS011;590;48.772;8.846;2023-07-02T10:14:44;13.33;;;12.67;;
253;SDS011;590;48.772;8.846;2023-07-02T10:17:22;13.60;;;12.33;;
253;SDS011;590;48.772;8.846;2023-07-02T10:19:52;15.13;;;13.47;;
253;SDS011;590;48.772;8.846;2023-07-02T10:22:22;13.70;;;13.00;;
253;SDS011;590;48.772;8.846;2023-07-02T10:24:51;12.77;;;12.07;;
253;SDS011;590;48.772;8.846;2023-07-02T10:27:32;12.10;;;11.40;;
253;SDS011;590;48.772;8.846;2023-07-02T10:30:01;13.90;;;13.20;;
253;SDS011;590;48.772;8.846;2023-07-02T10:32:30;14.30;;;13.60;;
253;SDS011;590;48.772;8.846;2023-07-02T10:35:00;12.93;;;12.23;;
253;SDS011;590;48.772;8.846;2023-07-02T10:40:03;12.53;;;11.90;;
253;SDS011;590;48.772;8.846;2023-07-02T10:42:33;12.97;;;12.27;;
253;SDS011;590;48.772;8.846;2023-07-02T10:45:01;14.20;;;13.20;;
253;SDS011;590;48.772;8.846;2023-07-02T10:47:29;13.73;;;12.93;;
253;SDS011;590;48.772;8.846;2023-07-02T10:49:57;16.40;;;14.10;;
253;SDS011;590;48.772;8.846;2023-07-02T10:52:25;12.87;;;12.17;;
253;SDS011;590;48.772;8.846;2023-07-02T10:54:53;13.93;;;13.23;;
253;SDS011;590;48.772;8.846;2023-07-02T10:57:22;13.43;;;12.73;;
253;SDS011;590;48.772;8.846;2023-07-02T10:59:50;12.87;;;11.90;;
253;SDS011;590;48.772;8.846;2023-07-02T11:02:18;14.63;;;12.83;;
253;SDS011;590;48.772;8.846;2023-07-02T11:04:46;13.83;;;13.10;;
253;SDS011;590;48.772;8.846;2023-07-02T11:07:14;13.77;;;13.10;;
253;SDS011;590;48.772;8.846;2023-07-02T11:09:50;14.23;;;13.53;;
253;SDS011;590;48.772;8.846;2023-07-02T11:12:18;13.17;;;12.47;;
253;SDS011;590;48.772;8.846;2023-07-02T11:15:06;14.30;;;13.53;;
253;SDS011;590;48.772;8.846;2023-07-02T11:17:34;13.90;;;13.20;;
253;SDS011;590;48.772;8.846;2023-07-02T11:20:02;14.03;;;13.33;;
253;SDS011;590;48.772;8.846;2023-07-02T11:22:32;13.90;;;13.20;;
253;SDS011;590;48.772;8.846;2023-07-02T11:25:11;13.07;;;12.40;;
253;SDS011;590;48.772;8.846;2023-07-02T11:27:41;14.43;;;13.70;;
253;SDS011;590;48.772;8.846;2023-07-02T11:30:11;14.30;;;12.90;;
253;SDS011;590;48.772;8.846;2023-07-02T11:32:46;14.80;;;14.00;;
253;SDS011;590;48.772;8.846;2023-07-02T11:35:18;13.93;;;13.23;;
253;SDS011;590;48.772;8.846;2023-07-02T11:37:46;14.40;;;13.70;;
253;SDS011;590;48.772;8.846;2023-07-02T11:40:17;14.33;;;13.63;;
253;SDS011;590;48.772;8.846;2023-07-02T11:42:46;13.30;;;12.60;;
253;SDS011;590;48.772;8.846;2023-07-02T11:45:14;13.90;;;13.20;;
253;SDS011;590;48.772;8.846;2023-07-02T11:47:42;13.10;;;12.40;;
253;SDS011;590;48.772;8.846;2023-07-02T11:50:10;13.97;;;13.27;;
253;SDS011;590;48.772;8.846;2023-07-02T11:52:51;13.20;;;12.50;;
253;SDS011;590;48.772;8.846;2023-07-02T11:55:20;13.70;;;13.00;;
253;SDS011;590;48.772;8.846;2023-07-02T11:57:49;14.23;;;13.53;;
253;SDS011;590;48.772;8.846;2023-07-02T12:00:18;15.47;;;13.70;;
253;SDS011;590;48.772;8.846;2023-07-02T12:02:46;13.40;;;12.10;;
253;SDS011;590;48.772;8.846;2023-07-02T12:05:14;14.60;;;13.90;;
253;SDS011;590;48.772;8.846;2023-07-02T12:07:42;14.77;;;14.00;;
253;SDS011;590;48.772;8.846;2023-07-02T12:10:10;13.10;;;12.40;;
253;SDS011;590;48.772;8.846;2023-07-02T12:12:38;14.43;;;13.67;;
253;SDS011;590;48.772;8.846;2023-07-02T12:15:08;13.77;;;12.97;;
253;SDS011;590;48.772;8.846;2023-07-02T12:17:36;15.47;;;14.40;;
253;SDS011;590;48.772;8.846;2023-07-02T12:20:05;14.93;;;14.13;;
253;SDS011;590;48.772;8.846;2023-07-02T12:22:34;13.90;;;13.20;;
253;SDS011;590;48.772;8.846;2023-07-02T12:25:02;14.80;;;12.67;;
253;SDS011;590;48.772;8.846;2023-07-02T12:27:30;13.83;;;13.13;;
253;SDS011;590;48.772;8.846;2023-07-02T12:29:58;14.33;;;13.63;;
253;SDS011;590;48.772;8.846;2023-07-02T12:32:27;13.57;;;12.87;;
253;SDS011;590;48.772;8.846;2023-07-02T12:34:56;16.63;;;13.80;;
253;SDS011;590;48.772;8.846;2023-07-02T12:37:24;14.47;;;13.73;;
253;SDS011;590;48.772;8.846;2023-07-02T12:39:52;13.60;;;12.60;;
253;SDS011;590;48.772;8.846;2023-07-02T12:42:20;14.40;;;13.53;;
253;SDS011;590;48.772;8.846;2023-07-02T12:45:01;14.67;;;13.20;;
253;SDS011;590;48.772;8.846;2023-07-02T12:47:31;15.00;;;14.20;;
253;SDS011;590;48.772;8.846;2023-07-02T12:49:59;15.77;;;14.80;;
253;SDS011;590;48.772;8.846;2023-07-02T12:52:28;14.80;;;13.00;;
253;SDS011;590;48.772;8.846;2023-07-02T12:54:56;17.17;;;14.93;;
253;SDS011;590;48.772;8.846;2023-07-02T12:57:24;13.83;;;12.93;;
253;SDS011;590;48.772;8.846;2023-07-02T12:59:53;14.50;;;13.80;;
253;SDS011;590;48.772;8.846;2023-07-02T13:02:21;14.57;;;13.50;;
253;SDS011;590;48.772;8.846;2023-07-02T13:04:51;15.87;;;12.70;;
253;SDS011;590;48.772;8.846;2023-07-02T13:07:19;13.50;;;12.80;;
253;SDS011;590;48.772;8.846;2023-07-02T13:09:49;14.30;;;13.60;;
253;SDS011;590;48.772;8.846;2023-07-02T13:12:17;16.27;;;13.50;;
253;SDS011;590;48.772;8.846;2023-07-02T13:14:46;14.20;;;13.53;;
253;SDS011;590;48.772;8.846;2023-07-02T13:17:14;14.37;;;13.60;;
253;SDS011;590;48.772;8.846;2023-07-02T13:19:42;13.93;;;13.23;;
253;SDS011;590;48.772;8.846;2023-07-02T13:22:12;13.60;;;12.90;;
253;SDS011;590;48.772;8.846;2023-07-02T13:24:40;13.67;;;12.97;;
253;SDS011;590;48.772;8.846;2023-07-02T13:27:09;14.07;;;13.37;;
253;SDS011;590;48.772;8.846;2023-07-02T13:29:41;13.83;;;13.13;;
253;SDS011;590;48.772;8.846;2023-07-02T13:32:09;13.33;;;12.43;;
253;SDS011;590;48.772;8.846;2023-07-02T13:34:37;14.00;;;13.30;;
253;SDS011;590;48.772;8.846;2023-07-02T13:37:05;15.20;;;14.40;;
253;SDS011;590;48.772;8.846;2023-07-02T13:39:35;13.80;;;13.10;;
253;SDS011;590;48.772;8.846;2023-07-02T13:42:03;13.60;;;12.90;;
253;SDS011;590;48.772;8.846;2023-07-02T13:44:32;13.50;;;12.80;;
253;SDS011;590;48.772;8.846;2023-07-02T13:47:00;13.73;;;12.40;;
253;SDS011;590;48.772;8.846;2023-07-02T13:49:28;12.93;;;12.23;;
253;SDS011;590;48.772;8.846;2023-07-02T13:51:56;14.50;;;12.90;;
253;SDS011;590;48.772;8.846;2023-07-02T13:54:24;13.93;;;13.23;;
253;SDS011;590;48.772;8.846;2023-07-02T13:56:55;12.70;;;12.00;;
253;SDS011;590;48.772;8.846;2023-07-02T13:59:24;13.70;;;13.00;;
253;SDS011;590;48.772;8.846;2023-07-02T14:01:53;15.53;;;13.40;;
253;SDS011;590;48.772;8.846;2023-07-02T14:04:21;14.30;;;13.60;;
253;SDS011;590;48.772;8.846;2023-07-02T14:06:49;13.70;;;13.00;;
253;SDS011;590;48.772;8.846;2023-07-02T14:09:17;14.00;;;13.30;;
253;SDS011;590;48.772;8.846;2023-07-02T14:11:45;13.23;;;12.53;;
253;SDS011;590;48.772;8.846;2023-07-02T14:14:13;13.10;;;12.40;;
253;SDS011;590;48.772;8.846;2023-07-02T14:16:43;13.37;;;12.67;;
253;SDS011;590;48.772;8.846;2023-07-02T14:19:11;14.43;;;13.73;;
253;SDS011;590;48.772;8.846;2023-07-02T14:21:39;13.80;;;12.93;;
253;SDS011;590;48.772;8.846;2023-07-02T14:24:07;14.43;;;13.60;;
253;SDS011;590;48.772;8.846;2023-07-02T14:26:35;15.20;;;13.70;;
253;SDS011;590;48.772;8.846;2023-07-02T14:29:03;13.20;;;12.50;;
253;SDS011;590;48.772;8.846;2023-07-02T14:31:31;14.20;;;13.50;;
253;SDS011;590;48.772;8.846;2023-07-02T14:34:00;12.97;;;12.27;;
253;SDS011;590;48.772;8.846;2023-07-02T14:36:28;14.23;;;13.53;;
253;SDS011;590;48.772;8.846;2023-07-02T14:38:56;14.70;;;12.90;;
253;SDS011;590;48.772;8.846;2023-07-02T14:41:24;15.00;;;14.20;;
253;SDS011;590;48.772;8.846;2023-07-02T14:43:53;12.53;;;11.50;;
253;SDS011;590;48.772;8.846;2023-07-02T14:46:21;15.07;;;14.27;;
253;SDS011;590;48.772;8.846;2023-07-02T14:48:49;13.33;;;12.67;;
253;SDS011;590;48.772;8.846;2023-07-02T14:51:18;14.10;;;13.40;;
253;SDS011;590;48.772;8.846;2023-07-02T14:53:46;13.60;;;12.90;;
253;SDS011;590;48.772;8.846;2023-07-02T14:56:14;14.40;;;13.23;;
253;SDS011;590;48.772;8.846;2023-07-02T14:58:42;15.80;;;14.63;;
253;SDS011;590;48.772;8.846;2023-07-02T15:01:11;14.97;;;12.73;;
253;SDS011;590;48.772;8.846;2023-07-02T15:03:39;13.37;;;12.67;;
253;SDS011;590;48.772;8.846;2023-07-02T15:06:08;15.70;;;14.60;;
253;SDS011;590;48.772;8.846;2023-07-02T15:08:39;13.03;;;12.13;;
253;SDS011;590;48.772;8.846;2023-07-02T15:11:08;13.70;;;13.00;;
253;SDS011;590;48.772;8.846;2023-07-02T15:13:37;14.70;;;13.10;;
253;SDS011;590;48.772;8.846;2023-07-02T15:16:07;14.13;;;13.43;;
253;SDS011;590;48.772;8.846;2023-07-02T15:18:36;13.53;;;12.80;;
253;SDS011;590;48.772;8.846;2023-07-02T15:21:04;13.73;;;13.03;;
253;SDS011;590;48.772;8.846;2023-07-02T15:23:32;13.87;;;12.60;;
253;SDS011;590;48.772;8.846;2023-07-02T15:26:02;13.40;;;12.70;;
253;SDS011;590;48.772;8.846;2023-07-02T15:28:32;12.67;;;11.87;;
253;SDS011;590;48.772;8.846;2023-07-02T15:31:02;13.57;;;12.87;;
253;SDS011;590;48.772;8.846;2023-07-02T15:33:32;13.20;;;12.43;;
253;SDS011;590;48.772;8.846;2023-07-02T15:36:00;12.97;;;12.13;;
253;SDS011;590;48.772;8.846;2023-07-02T15:38:30;13.17;;;12.50;;
253;SDS011;590;48.772;8.846;2023-07-02T15:41:07;13.53;;;12.17;;